createdAt,value
2023-04-02T00:02:00.412Z,45
2023-04-02T00:04:31.346Z,40
2023-04-02T00:07:01.248Z,44
2023-04-02T00:09:31.844Z,40
2023-04-02T00:12:02.078Z,45
2023-04-02T00:14:33.324Z,40
2023-04-02T00:17:04.192Z,40
2023-04-02T00:19:34.830Z,43
2023-04-02T00:22:06.012Z,40
2023-04-02T00:24:36.341Z,36
2023-04-02T00:27:06.433Z,40
2023-04-02T00:29:37.620Z,42
2023-04-02T00:32:08.319Z,48
2023-04-02T00:34:40.848Z,41
2023-04-02T00:37:10.873Z,42
2023-04-02T00:39:41.631Z,40
2023-04-02T00:42:16.047Z,40
2023-04-02T00:44:46.785Z,42
2023-04-02T00:47:17.631Z,44
2023-04-02T00:49:48.633Z,46
2023-04-02T00:52:18.626Z,44
2023-04-02T00:54:49.124Z,44
2023-04-02T00:57:19.791Z,44
2023-04-02T00:59:53.898Z,43
2023-04-02T01:02:24.312Z,47
2023-04-02T01:04:54.419Z,41
2023-04-02T01:07:24.377Z,44
2023-04-02T01:09:54.507Z,46
2023-04-02T01:12:24.666Z,44
2023-04-02T01:14:54.974Z,41
2023-04-02T01:17:24.790Z,40
2023-04-02T01:19:55.373Z,44
2023-04-02T01:22:25.696Z,48
2023-04-02T01:24:56.230Z,48
2023-04-02T01:27:26.480Z,42
2023-04-02T01:29:56.938Z,44
2023-04-02T01:32:28.106Z,36
2023-04-02T01:34:58.697Z,42
2023-04-02T01:37:29.039Z,36
2023-04-02T01:39:59.063Z,39
2023-04-02T01:42:29.345Z,36
2023-04-02T01:44:59.621Z,42
2023-04-02T01:47:29.690Z,36
2023-04-02T01:50:00.063Z,44
2023-04-02T01:52:31.620Z,36
2023-04-02T01:55:02.025Z,36
2023-04-02T01:57:32.311Z,36
2023-04-02T02:00:03.057Z,36
2023-04-02T02:02:33.430Z,37
2023-04-02T02:05:04.398Z,44
2023-04-02T02:07:34.758Z,37
2023-04-02T02:10:04.634Z,32
2023-04-02T02:12:36.034Z,33
2023-04-02T02:15:06.229Z,36
2023-04-02T02:17:36.665Z,36
2023-04-02T02:20:06.747Z,32
2023-04-02T02:22:37.086Z,35
2023-04-02T02:25:07.741Z,39
2023-04-02T02:27:38.949Z,28
2023-04-02T02:30:09.456Z,36
2023-04-02T02:32:40.244Z,40
2023-04-02T02:35:10.387Z,34
2023-04-02T02:37:41.304Z,40
2023-04-02T02:40:11.357Z,36
2023-04-02T02:42:42.191Z,43
2023-04-02T02:45:16.575Z,40
2023-04-02T02:47:47.776Z,40
2023-04-02T02:50:16.600Z,43
2023-04-02T02:52:46.901Z,40
2023-04-02T02:55:17.191Z,45
2023-04-02T02:57:47.808Z,44
2023-04-02T03:00:18.465Z,40
2023-04-02T03:02:50.739Z,38
2023-04-02T03:05:26.227Z,40
2023-04-02T03:07:56.400Z,41
2023-04-02T03:10:26.403Z,40
2023-04-02T03:12:56.626Z,35
2023-04-02T03:15:27.356Z,32
2023-04-02T03:17:57.653Z,36
2023-04-02T03:20:28.409Z,32
2023-04-02T03:22:58.899Z,36
2023-04-02T03:25:29.358Z,32
2023-04-02T03:28:01.687Z,34
2023-04-02T03:30:32.665Z,39
2023-04-02T03:33:03.000Z,33
2023-04-02T03:35:33.563Z,32
2023-04-02T03:38:04.111Z,32
2023-04-02T03:40:34.644Z,38
2023-04-02T03:43:07.215Z,35
2023-04-02T03:45:38.650Z,33
2023-04-02T03:48:09.403Z,29
2023-04-02T03:50:39.442Z,32
2023-04-02T03:53:09.795Z,32
2023-04-02T03:55:40.391Z,29
2023-04-02T03:58:10.992Z,28
2023-04-02T04:00:47.462Z,34
2023-04-02T04:03:18.219Z,28
2023-04-02T04:05:50.060Z,36
2023-04-02T04:08:21.614Z,36
2023-04-02T04:10:51.984Z,34
2023-04-02T04:13:22.307Z,28
2023-04-02T04:15:52.878Z,33
2023-04-02T04:18:24.532Z,28
2023-04-02T04:20:54.867Z,36
2023-04-02T04:23:25.273Z,28
2023-04-02T04:25:55.780Z,28
2023-04-02T04:28:26.176Z,25
2023-04-02T04:30:56.917Z,24
2023-04-02T04:33:27.078Z,32
2023-04-02T04:35:57.892Z,30
2023-04-02T04:38:28.195Z,28
2023-04-02T04:40:58.491Z,29
2023-04-02T04:43:30.951Z,32
2023-04-02T04:46:01.330Z,38
2023-04-02T04:48:33.999Z,34
2023-04-02T04:51:03.266Z,37
2023-04-02T04:53:35.842Z,40
2023-04-02T04:56:18.428Z,48
2023-04-02T04:58:39.016Z,43
2023-04-02T05:01:09.162Z,40
2023-04-02T05:03:39.909Z,33
2023-04-02T05:06:09.949Z,39
2023-04-02T05:08:40.669Z,34
2023-04-02T05:11:11.476Z,28
2023-04-02T05:13:41.898Z,29
2023-04-02T05:16:12.390Z,28
2023-04-02T05:18:43.259Z,28
2023-04-02T05:21:13.721Z,28
2023-04-02T05:23:44.168Z,24
2023-04-02T05:26:15.020Z,20
2023-04-02T05:28:45.067Z,20
2023-04-02T05:31:15.607Z,21
2023-04-02T05:33:46.113Z,23
2023-04-02T05:36:16.327Z,30
2023-04-02T05:38:46.887Z,31
2023-04-02T05:41:17.285Z,32
2023-04-02T05:43:47.460Z,36
2023-04-02T05:46:17.721Z,38
2023-04-02T05:48:48.784Z,44
2023-04-02T05:51:19.272Z,46
2023-04-02T05:53:50.518Z,44
2023-04-02T05:56:21.028Z,40
2023-04-02T05:58:51.559Z,50
2023-04-02T06:01:21.568Z,47
2023-04-02T06:03:52.519Z,44
2023-04-02T06:06:22.574Z,44
2023-04-02T06:08:52.782Z,46
2023-04-02T06:11:24.928Z,45
2023-04-02T06:13:55.299Z,48
2023-04-02T06:16:26.143Z,44
2023-04-02T06:18:59.071Z,44
2023-04-02T06:21:29.609Z,48
2023-04-02T06:24:00.136Z,47
2023-04-02T06:26:32.163Z,48
2023-04-02T06:29:02.590Z,52
2023-04-02T06:31:33.630Z,48
2023-04-02T06:34:03.719Z,37
2023-04-02T06:36:34.562Z,41
2023-04-02T06:39:05.371Z,40
2023-04-02T06:41:35.631Z,40
2023-04-02T06:44:08.490Z,40
2023-04-02T06:46:40.211Z,49
2023-04-02T06:49:10.751Z,41
2023-04-02T06:51:41.240Z,36
2023-04-02T06:54:11.397Z,28
2023-04-02T06:56:44.449Z,35
2023-04-02T06:59:15.141Z,20
2023-04-02T07:01:45.876Z,20
2023-04-02T07:04:16.676Z,16
2023-04-02T07:06:47.758Z,24
2023-04-02T07:09:23.103Z,16
2023-04-02T07:11:53.210Z,13
2023-04-02T07:14:23.558Z,12
2023-04-02T07:16:55.688Z,8
2023-04-02T07:19:25.840Z,8
2023-04-02T07:21:56.287Z,11
2023-04-02T07:24:26.723Z,12
2023-04-02T07:26:56.842Z,8
2023-04-02T07:29:27.681Z,28
2023-04-02T07:31:58.275Z,28
2023-04-02T07:34:31.739Z,12
2023-04-02T07:37:04.886Z,8
2023-04-02T07:39:39.522Z,10
2023-04-02T07:42:08.448Z,8
2023-04-02T07:44:37.294Z,12
2023-04-02T07:47:07.839Z,8
2023-04-02T07:49:38.054Z,16
2023-04-02T07:52:08.313Z,11
2023-04-02T07:54:38.948Z,8
2023-04-02T07:57:09.645Z,8
2023-04-02T07:59:40.194Z,8
2023-04-02T08:02:10.402Z,9
2023-04-02T08:04:40.767Z,8
2023-04-02T08:07:11.829Z,12
2023-04-02T08:09:42.438Z,8
2023-04-02T08:12:12.563Z,8
2023-04-02T08:14:43.424Z,12
2023-04-02T08:17:14.215Z,10
2023-04-02T08:19:54.571Z,8
2023-04-02T08:22:15.580Z,8
2023-04-02T08:24:45.919Z,15
2023-04-02T08:27:16.072Z,24
2023-04-02T08:29:46.244Z,26
2023-04-02T08:32:16.640Z,16
2023-04-02T08:34:46.759Z,12
2023-04-02T08:37:18.347Z,16
2023-04-02T08:39:48.321Z,20
2023-04-02T08:42:18.861Z,24
2023-04-02T08:44:49.122Z,31
2023-04-02T08:47:19.397Z,16
2023-04-02T08:49:47.928Z,33
2023-04-02T08:52:18.091Z,28
2023-04-02T08:54:48.344Z,26
2023-04-02T08:57:18.887Z,28
2023-04-02T08:59:49.232Z,20
2023-04-02T09:02:19.907Z,8
2023-04-02T09:04:50.579Z,20
2023-04-02T09:07:21.210Z,20
2023-04-02T09:09:51.978Z,16
2023-04-02T09:12:22.274Z,17
2023-04-02T09:14:52.800Z,11
2023-04-02T09:17:21.868Z,13
2023-04-02T09:19:52.365Z,8
2023-04-02T09:22:23.230Z,14
2023-04-02T09:24:53.567Z,8
2023-04-02T09:27:25.941Z,23
2023-04-02T09:29:56.400Z,11
2023-04-02T09:32:26.661Z,8
2023-04-02T09:34:57.452Z,8
2023-04-02T09:37:28.613Z,8
2023-04-02T09:39:58.990Z,10
2023-04-02T09:42:29.327Z,12
2023-04-02T09:44:59.782Z,16
2023-04-02T09:47:29.842Z,8
2023-04-02T09:50:00.545Z,12
2023-04-02T09:52:31.414Z,8
2023-04-02T09:55:01.725Z,8
2023-04-02T09:57:32.679Z,16
2023-04-02T10:00:02.990Z,15
2023-04-02T10:02:33.397Z,12
2023-04-02T10:05:04.268Z,12
2023-04-02T10:07:32.737Z,13
2023-04-02T10:10:02.682Z,9
2023-04-02T10:12:32.873Z,11
2023-04-02T10:15:03.313Z,8
2023-04-02T10:17:33.231Z,8
2023-04-02T10:20:03.249Z,12
2023-04-02T10:22:33.483Z,8
2023-04-02T10:25:03.742Z,19
2023-04-02T10:27:33.922Z,8
2023-04-02T10:30:04.813Z,11
2023-04-02T10:32:34.649Z,8
2023-04-02T10:35:04.796Z,8
2023-04-02T10:37:34.986Z,9
2023-04-02T10:40:05.506Z,12
2023-04-02T10:42:35.656Z,16
2023-04-02T10:45:06.371Z,12
2023-04-02T10:47:36.865Z,8
2023-04-02T10:50:07.401Z,8
2023-04-02T10:52:37.885Z,7
2023-04-02T10:55:06.887Z,11
2023-04-02T10:57:36.946Z,8
2023-04-02T11:00:06.957Z,12
2023-04-02T11:02:36.909Z,8
2023-04-02T11:05:07.409Z,12
2023-04-02T11:07:37.863Z,8
2023-04-02T11:10:08.134Z,10
2023-04-02T11:12:41.481Z,8
2023-04-02T11:15:09.241Z,8
2023-04-02T11:17:39.627Z,13
2023-04-02T11:20:09.822Z,14
2023-04-02T11:22:41.358Z,18
2023-04-02T11:25:11.829Z,12
2023-04-02T11:27:41.924Z,8
2023-04-02T11:30:12.319Z,8
2023-04-02T11:32:43.136Z,7
2023-04-02T11:35:13.339Z,8
2023-04-02T11:37:43.338Z,8
2023-04-02T11:40:14.185Z,8
2023-04-02T11:42:44.257Z,8
2023-04-02T11:45:14.623Z,8
2023-04-02T11:47:45.314Z,7
2023-04-02T11:50:15.522Z,12
2023-04-02T11:52:45.878Z,9
2023-04-02T11:55:16.159Z,8
2023-04-02T11:57:47.317Z,8
2023-04-02T12:00:18.261Z,4
2023-04-02T12:02:48.621Z,4
2023-04-02T12:05:19.173Z,4
2023-04-02T12:07:49.216Z,4
2023-04-02T12:10:19.931Z,4
2023-04-02T12:12:50.119Z,4
2023-04-02T12:15:20.513Z,0
2023-04-02T12:17:51.045Z,3
2023-04-02T12:20:21.093Z,4
2023-04-02T12:22:51.473Z,5
2023-04-02T12:25:22.095Z,4
2023-04-02T12:27:52.612Z,4
2023-04-02T12:30:21.868Z,4
2023-04-02T12:32:52.242Z,4
2023-04-02T12:35:22.634Z,4
2023-04-02T12:37:52.747Z,4
2023-04-02T12:40:22.822Z,4
2023-04-02T12:42:53.651Z,4
2023-04-02T12:45:24.040Z,12
2023-04-02T12:47:55.146Z,4
2023-04-02T12:50:26.603Z,20
2023-04-02T12:52:56.588Z,4
2023-04-02T12:55:26.646Z,1
2023-04-02T12:57:56.947Z,4
2023-04-02T13:00:27.005Z,6
2023-04-02T13:02:57.164Z,8
2023-04-02T13:05:27.606Z,4
2023-04-02T13:07:57.944Z,8
2023-04-02T13:10:28.550Z,4
2023-04-02T13:12:58.741Z,4
2023-04-02T13:15:30.045Z,4
2023-04-02T13:18:00.923Z,24
2023-04-02T13:20:31.276Z,35
2023-04-02T13:23:02.927Z,16
2023-04-02T13:25:33.477Z,8
2023-04-02T13:28:02.512Z,17
2023-04-02T13:30:33.526Z,32
2023-04-02T13:33:04.644Z,4
2023-04-02T13:35:34.757Z,3
2023-04-02T13:38:03.664Z,4
2023-04-02T13:40:34.763Z,4
2023-04-02T13:43:05.022Z,4
2023-04-02T13:45:35.419Z,8
2023-04-02T13:48:06.012Z,48
2023-04-02T13:50:36.190Z,12
2023-04-02T13:53:09.783Z,8
2023-04-02T13:55:38.003Z,8
2023-04-02T13:58:12.446Z,32
2023-04-02T14:00:43.749Z,40
2023-04-02T14:03:13.817Z,34
2023-04-02T14:05:44.462Z,16
2023-04-02T14:08:14.827Z,32
2023-04-02T14:10:46.006Z,20
2023-04-02T14:13:16.121Z,12
2023-04-02T14:15:47.287Z,19
2023-04-02T14:18:17.590Z,8
2023-04-02T14:20:48.755Z,9
2023-04-02T14:23:18.794Z,10
2023-04-02T14:25:49.532Z,24
2023-04-02T14:28:20.197Z,9
2023-04-02T14:30:50.848Z,12
2023-04-02T14:33:21.293Z,8
2023-04-02T14:35:51.450Z,8
2023-04-02T14:38:21.568Z,8
2023-04-02T14:40:51.710Z,4
2023-04-02T14:43:22.022Z,15
2023-04-02T14:45:52.461Z,13
2023-04-02T14:48:22.908Z,9
2023-04-02T14:50:52.693Z,8
2023-04-02T14:53:21.924Z,12
2023-04-02T14:55:52.232Z,8
2023-04-02T14:58:23.892Z,8
2023-04-02T15:00:55.019Z,8
2023-04-02T15:03:24.394Z,4
2023-04-02T15:05:54.505Z,4
2023-04-02T15:08:24.748Z,8
2023-04-02T15:10:55.129Z,3
2023-04-02T15:13:25.418Z,4
2023-04-02T15:15:55.857Z,4
2023-04-02T15:18:26.233Z,4
2023-04-02T15:20:56.667Z,4
2023-04-02T15:23:27.151Z,4
2023-04-02T15:25:56.980Z,4
2023-04-02T15:28:27.504Z,4
2023-04-02T15:30:58.130Z,4
2023-04-02T15:33:28.775Z,4
2023-04-02T15:35:59.865Z,4
2023-04-02T15:38:29.876Z,4
2023-04-02T15:40:59.845Z,4
2023-04-02T15:43:30.129Z,4
2023-04-02T15:46:00.688Z,4
2023-04-02T15:48:29.506Z,4
2023-04-02T15:50:59.654Z,3
2023-04-02T15:53:30.400Z,4
2023-04-02T15:56:00.719Z,4
2023-04-02T15:58:31.696Z,12
2023-04-02T16:01:02.324Z,11
2023-04-02T16:03:31.106Z,16
2023-04-02T16:06:01.884Z,16
2023-04-02T16:08:32.017Z,5
2023-04-02T16:11:00.859Z,8
2023-04-02T16:13:31.130Z,7
2023-04-02T16:16:01.811Z,4
2023-04-02T16:18:31.843Z,5
2023-04-02T16:21:02.597Z,8
2023-04-02T16:23:32.775Z,8
2023-04-02T16:26:03.374Z,8
2023-04-02T16:28:33.853Z,8
2023-04-02T16:31:04.580Z,8
2023-04-02T16:33:33.799Z,4
2023-04-02T16:36:03.894Z,8
2023-04-02T16:38:32.630Z,4
2023-04-02T16:41:08.171Z,9
2023-04-02T16:43:32.764Z,8
2023-04-02T16:46:03.030Z,4
2023-04-02T16:48:33.398Z,7
2023-04-02T16:51:03.606Z,8
2023-04-02T16:53:33.722Z,8
2023-04-02T16:56:04.492Z,8
2023-04-02T16:58:34.555Z,8
2023-04-02T17:01:04.897Z,8
2023-04-02T17:03:35.232Z,8
2023-04-02T17:06:05.683Z,8
2023-04-02T17:08:35.861Z,8
2023-04-02T17:11:06.551Z,10
2023-04-02T17:13:36.807Z,12
2023-04-02T17:16:07.422Z,16
2023-04-02T17:18:37.617Z,9
2023-04-02T17:21:07.645Z,15
2023-04-02T17:23:43.253Z,12
2023-04-02T17:26:07.587Z,12
2023-04-02T17:28:37.630Z,21
2023-04-02T17:31:07.775Z,17
2023-04-02T17:33:37.843Z,24
2023-04-02T17:36:07.944Z,20
2023-04-02T17:38:38.422Z,16
2023-04-02T17:41:09.507Z,15
2023-04-02T17:43:39.634Z,12
2023-04-02T17:46:09.736Z,16
2023-04-02T17:48:39.634Z,19
2023-04-02T17:51:09.930Z,20
2023-04-02T17:53:40.488Z,16
2023-04-02T17:56:10.148Z,12
2023-04-02T17:58:40.429Z,16
2023-04-02T18:01:10.980Z,15
2023-04-02T18:03:41.158Z,11
2023-04-02T18:06:09.953Z,12
2023-04-02T18:08:38.641Z,8
2023-04-02T18:11:08.632Z,12
2023-04-02T18:13:38.884Z,12
2023-04-02T18:16:09.018Z,10
2023-04-02T18:18:43.375Z,36
2023-04-02T18:21:14.150Z,14
2023-04-02T18:23:44.551Z,13
2023-04-02T18:26:13.174Z,7
2023-04-02T18:28:43.458Z,18
2023-04-02T18:31:13.792Z,12
2023-04-02T18:33:43.796Z,31
2023-04-02T18:36:14.007Z,32
2023-04-02T18:38:44.149Z,33
2023-04-02T18:41:14.096Z,39
2023-04-02T18:43:44.138Z,44
2023-04-02T18:46:14.333Z,48
2023-04-02T18:48:45.334Z,48
2023-04-02T18:51:16.132Z,47
2023-04-02T18:53:46.965Z,52
2023-04-02T18:56:17.067Z,50
2023-04-02T18:58:47.111Z,52
2023-04-02T19:01:17.228Z,52
2023-04-02T19:03:48.093Z,56
2023-04-02T19:06:18.941Z,55
2023-04-02T19:08:49.570Z,53
2023-04-02T19:11:19.789Z,56
2023-04-02T19:13:48.750Z,54
2023-04-02T19:16:19.061Z,53
2023-04-02T19:18:49.722Z,48
2023-04-02T19:21:20.202Z,50
2023-04-02T19:23:50.444Z,52
2023-04-02T19:26:20.601Z,52
2023-04-02T19:28:50.918Z,61
2023-04-02T19:31:22.069Z,76
2023-04-02T19:33:53.144Z,88
2023-04-02T19:36:23.639Z,88
2023-04-02T19:38:53.930Z,84
2023-04-02T19:41:24.048Z,75
2023-04-02T19:43:54.493Z,57
2023-04-02T19:46:24.716Z,44
2023-04-02T19:48:54.791Z,44
2023-04-02T19:51:24.739Z,40
2023-04-02T19:53:55.489Z,36
2023-04-02T19:56:26.136Z,28
2023-04-02T19:58:58.274Z,32
2023-04-02T20:01:27.589Z,31
2023-04-02T20:03:56.122Z,26
2023-04-02T20:06:26.388Z,26
2023-04-02T20:08:56.385Z,28
2023-04-02T20:11:26.637Z,32
2023-04-02T20:13:55.549Z,29
2023-04-02T20:16:25.688Z,33
2023-04-02T20:18:55.812Z,33
2023-04-02T20:21:26.300Z,36
2023-04-02T20:23:56.930Z,33
2023-04-02T20:26:26.993Z,28
2023-04-02T20:28:57.437Z,28
2023-04-02T20:31:27.525Z,32
2023-04-02T20:33:57.774Z,33
2023-04-02T20:36:28.080Z,32
2023-04-02T20:38:58.199Z,31
2023-04-02T20:41:28.159Z,50
2023-04-02T20:43:56.356Z,69
2023-04-02T20:46:26.551Z,63
2023-04-02T20:48:56.831Z,44
2023-04-02T20:51:27.675Z,42
2023-04-02T20:53:58.217Z,52
2023-04-02T20:56:29.196Z,50
2023-04-02T20:58:59.134Z,52
2023-04-02T21:01:29.630Z,52
2023-04-02T21:03:59.891Z,56
2023-04-02T21:06:30.119Z,52
2023-04-02T21:09:00.927Z,52
2023-04-02T21:11:31.750Z,52
2023-04-02T21:14:00.340Z,56
2023-04-02T21:16:30.308Z,56
2023-04-02T21:19:00.259Z,52
2023-04-02T21:21:30.953Z,52
2023-04-02T21:24:01.066Z,51
2023-04-02T21:26:32.516Z,52
2023-04-02T21:29:01.783Z,56
2023-04-02T21:31:31.916Z,53
2023-04-02T21:34:01.700Z,51
2023-04-02T21:36:32.346Z,54
2023-04-02T21:39:02.882Z,52
2023-04-02T21:41:33.302Z,49
2023-04-02T21:44:03.422Z,49
2023-04-02T21:46:34.186Z,52
2023-04-02T21:49:05.865Z,44
2023-04-02T21:51:36.182Z,39
2023-04-02T21:54:06.472Z,36
2023-04-02T21:56:37.083Z,32
2023-04-02T21:59:08.693Z,21
2023-04-02T22:01:39.279Z,16
2023-04-02T22:04:09.963Z,20
2023-04-02T22:06:40.444Z,20
2023-04-02T22:09:11.116Z,16
2023-04-02T22:11:41.904Z,20
2023-04-02T22:14:12.165Z,17
2023-04-02T22:16:42.654Z,19
2023-04-02T22:19:14.414Z,16
2023-04-02T22:21:45.240Z,15
2023-04-02T22:24:15.860Z,16
2023-04-02T22:26:46.365Z,12
2023-04-02T22:29:16.878Z,12
2023-04-02T22:31:47.891Z,12
2023-04-02T22:34:18.143Z,15
2023-04-02T22:36:51.540Z,16
2023-04-02T22:39:22.071Z,19
2023-04-02T22:41:52.628Z,16
2023-04-02T22:44:23.180Z,20
2023-04-02T22:46:53.766Z,17
2023-04-02T22:49:24.224Z,20
2023-04-02T22:51:54.654Z,16
2023-04-02T22:54:25.242Z,12
2023-04-02T22:56:55.794Z,12
2023-04-02T22:59:24.808Z,13
2023-04-02T23:01:55.532Z,12
2023-04-02T23:04:25.655Z,20
2023-04-02T23:06:56.905Z,16
2023-04-02T23:09:27.333Z,12
2023-04-02T23:11:58.187Z,16
2023-04-02T23:14:28.672Z,16
2023-04-02T23:16:59.421Z,14
2023-04-02T23:19:28.718Z,12
2023-04-02T23:21:59.436Z,8
2023-04-02T23:24:28.626Z,8
2023-04-02T23:26:59.357Z,12
2023-04-02T23:29:29.475Z,12
2023-04-02T23:31:59.954Z,8
2023-04-02T23:34:30.308Z,12
2023-04-02T23:37:01.199Z,8
2023-04-02T23:39:31.468Z,12
2023-04-02T23:42:02.322Z,13
2023-04-02T23:44:32.488Z,12
2023-04-02T23:47:03.124Z,12
2023-04-02T23:49:32.450Z,14
2023-04-02T23:52:02.708Z,12
2023-04-02T23:54:33.440Z,12
2023-04-02T23:57:04.027Z,12
2023-04-02T23:59:34.350Z,16
